Share

Prudhoe Bay, AK

3:52 AM AKDT on April 24, 2014 (GMT -0800)
Deadhorse (PASC) Elev 59 ft | 70.19 °N, 148.47 °W | Change Station

Current weather conditions updated 14 minutes ago

Light Freezing Fog
Freezing Fog
7 °F
Feels Like 0 °F
N
4
Wind Variable Wind from SW
Sunrise 5:03 AM
Sunset 10:47 PM
Moon Waning Crescent

Today is forecast to be Warmer than yesterday.

Pressure 29.88 in
Visibility 0.5 miles
Clouds
Windchill 0 °F
Dew Point 5 °F
Humidity 92%
Rainfall 0.00 in
Snow Depth Not available.
UV Not available.
Pollen Not available.
Air Quality Not available.
Flu Activity Sporadic
SPECI PASC 241138Z 22003KT 1/2SM R05/2200V2600FT FZFG VV003 M14/M15 A2988 RMK AO2 T11391150 $

More Conditions Fewer Conditions

Pressure 29.88 in
Visibility 0.5 miles
Clouds
Windchill 0 °F
Dew Point 5 °F
Humidity 92%
Rainfall 0.00 in
Snow Depth Not available.
UV Not available.
Pollen Not available.
Air Quality Not available.
Flu Activity Sporadic
SPECI PASC 241138Z 22003KT 1/2SM R05/2200V2600FT FZFG VV003 M14/M15 A2988 RMK AO2 T11391150 $

More Conditions Fewer Conditions

10-Day Weather Forecast

Almanac

Astronomy

Apr. 24, 2014 Rise Set
Actual Time 5:03 AM AKDT 10:47 PM AKDT
Civil Twilight 3:10 AM AKDT 12:48 AM AKDT
Nautical Twilight Sun does not rise Sun does not rise
Astronomical Twilight Sun does not rise Sun does not rise
Moon 5:11 AM AKDT 3:35 PM AKDT
Length of Visible Light 21h 37m
Length of Day
17h 43m
Tomorrow will be 10m 28s longer.
Waning Crescent, 26% of the Moon is Illuminated
Today
Waning Crescent
Apr 29
New
May 6
First Quarter
May 14
Full
May 21
Last Quarter

Today's Extremes

State Highs State Lows

Community

  • Stacked
    Stacked
  • clouds approaching Red Sox Nation
    clouds approaching Red Sox Nation
  • Balance
    Balance
  • Nestled In
    Nestled In
  • Stunning Sunrise
    Stunning Sunrise

WunderPhotos

Upload Photos

1,704,585 photos uploaded!

WunderBlogs® & News

Nearby

Snow Depth

Station Depth Elevation
Imnaviat Creek 59 in 3050 ft
Atigun Pass 37 in 4800 ft
Coldfoot 21 in 1040 ft
Gobblers Knob 6 in 2030 ft
Fort Yukon 14 in 430 ft

Coastal Water Temperatures

Place Temperature
No Stations Reporting

Earthquake Activity

City Distance Mag. Time & Date
No recent earthquake activity has been reported nearby.
Minimum magnitude displayed is 2.5.

Nearby Weather Stations

Station Location Temp. Windchill Dew Point Humidity Wind Precip. Elev Updated Type
Alyeska Pipeline PS-01, Prudhoe Bay, AK 9.5 °F 10 °F 7 °F 90% South  at  0.0 mph 0.00 in / hr 30 ft 3:52 AM AKDT Rapid Fire
MesoWest PRUDHOE BAY , Prudhoe Bay, AK 5 °F 5 °F - - North  at  - 0.00 in / hr 29 ft 2:00 AM AKDT MADIS

Show More Stations Show Fewer Stations

What do you think?

We're not finished. Please let us know what you like, what you don't like, and what you are still missing.